FYLZ/LUD METAR and TAF weather

Enter ICAO airport designator
Station Type Date Time Source
FYLZ METAR 2019/08/19 07:00 UTC NOAA

FYLZ 190700Z AUTO 16012KT //// // ////// 21/04 Q1021


Station Type Date Time Source
FYLZ Decoded METAR 2019/08/19 07:00 UTC NOAA

Station name not available
Aug 19, 2019 - 03:00 AM EDT / 2019.08.19 0700 UTC
Wind: from the SSE (160 degrees) at 14 MPH (12 KT):0
Temperature: 69 F (21 C)
Dew Point: 39 F (4 C)
Relative Humidity: 32%
Pressure (altimeter): 30.15 in. Hg (1021 hPa)
ob: FYLZ 190700Z AUTO 16012KT //// // ////// 21/04 Q1021
cycle: 7

Station Type Date Time Source
FYLZ TAF 2014/11/15 15:19 UTC NOAA

TAF FYLZ 151400Z 1515/1524 18015G28KT CAVOK
BECMG 1518/1520 16020KT

Example: see airport list